Time;durP1;ratioP1;P1;durP2;ratioP2;P2;SDS_P1;SDS_P2;PMS_P1;PMS_P2;Temp;Humidity;BMP_temperature;BMP_pressure;BME280_temperature;BME280_humidity;BME280_pressure;Samples;Min_cycle;Max_cycle;Signal;HPM_P1;HPM_P2
2022/04/17 00:00:22;;;;;;;1.63;0.77;;;;;;;16.57;29.29;102736.00;4968283;28;20019;-70
2022/04/17 00:02:47;;;;;;;3.13;1.02;;;;;;;16.55;29.58;102733.44;4966082;28;20018;-70
2022/04/17 00:05:12;;;;;;;3.08;0.90;;;;;;;16.55;29.72;102733.44;4967141;28;20058;-71
2022/04/17 00:07:38;;;;;;;1.55;0.90;;;;;;;16.54;28.45;102737.09;4997791;28;20070;-70
2022/04/17 00:10:05;;;;;;;2.10;1.00;;;;;;;16.52;29.02;102732.78;4966559;28;20027;-70
2022/04/17 00:12:30;;;;;;;1.38;1.00;;;;;;;16.49;29.12;102731.16;4966535;28;20027;-71
2022/04/17 00:14:55;;;;;;;5.30;1.25;;;;;;;16.47;30.10;102732.28;4966164;28;20058;-71
2022/04/17 00:17:22;;;;;;;3.78;1.23;;;;;;;16.44;28.26;102725.28;4967106;28;20077;-72
2022/04/17 00:19:47;;;;;;;1.35;0.82;;;;;;;16.42;29.63;102731.75;4967195;28;20023;-71
2022/04/17 00:22:13;;;;;;;2.38;0.93;;;;;;;16.38;29.30;102723.03;4957319;28;20023;-69
2022/04/17 00:24:39;;;;;;;1.27;0.90;;;;;;;16.35;28.66;102725.97;4958105;29;20031;-70
2022/04/17 00:27:05;;;;;;;2.70;0.93;;;;;;;16.30;30.03;102717.38;4956758;29;20062;-70
2022/04/17 00:29:30;;;;;;;2.50;0.95;;;;;;;16.24;30.13;102712.44;4956556;29;20031;-71
2022/04/17 00:31:58;;;;;;;2.15;1.05;;;;;;;16.18;29.32;102712.91;4957660;29;20440;-71
2022/04/17 00:34:26;;;;;;;1.33;0.90;;;;;;;16.09;29.15;102708.22;4956447;29;20476;-71
2022/04/17 00:36:51;;;;;;;2.63;1.02;;;;;;;16.02;28.86;102712.38;4941051;29;20027;-71
2022/04/17 00:39:17;;;;;;;1.95;1.10;;;;;;;15.94;29.92;102704.84;4957648;29;20073;-70
2022/04/17 00:41:42;;;;;;;5.68;0.90;;;;;;;15.87;30.63;102713.53;4956486;29;20049;-71
2022/04/17 00:44:11;;;;;;;2.28;0.85;;;;;;;15.79;29.67;102705.16;4956634;29;20027;-71
2022/04/17 00:46:38;;;;;;;3.38;1.17;;;;;;;15.72;29.60;102704.75;4940578;29;20023;-71
2022/04/17 00:49:03;;;;;;;3.08;0.98;;;;;;;15.64;30.33;102708.03;4956254;29;20035;-71
2022/04/17 00:51:30;;;;;;;1.02;0.70;;;;;;;15.58;30.98;102708.50;4957549;29;20444;-70
2022/04/17 00:53:57;;;;;;;3.50;1.17;;;;;;;15.53;30.98;102709.81;4956349;29;20077;-71
2022/04/17 00:56:24;;;;;;;1.52;0.98;;;;;;;15.48;29.60;102707.47;4956450;29;20035;-70
2022/04/17 00:58:49;;;;;;;1.35;1.00;;;;;;;15.43;29.90;102709.63;4956313;29;20035;-71
2022/04/17 01:01:15;;;;;;;1.45;1.02;;;;;;;15.39;30.81;102699.16;4956141;29;20477;-71
2022/04/17 01:03:41;;;;;;;2.10;0.98;;;;;;;15.33;31.14;102703.19;4957258;29;20031;-71
2022/04/17 01:06:06;;;;;;;2.63;0.90;;;;;;;15.29;30.19;102700.81;4955608;28;20541;-70
2022/04/17 01:08:33;;;;;;;5.13;0.95;;;;;;;15.25;31.09;102710.13;4955634;29;20110;-69
2022/04/17 01:10:58;;;;;;;2.42;1.30;;;;;;;15.21;31.28;102714.91;4957159;29;20027;-70
2022/04/17 01:13:24;;;;;;;3.58;0.98;;;;;;;15.18;30.61;102708.84;4956987;28;20030;-71
2022/04/17 01:15:50;;;;;;;2.70;0.80;;;;;;;15.15;30.19;102709.94;4939570;29;20031;-71
2022/04/17 01:18:15;;;;;;;1.17;0.88;;;;;;;15.11;29.71;102713.84;4955752;29;20031;-71
2022/04/17 01:20:41;;;;;;;1.90;1.00;;;;;;;15.10;30.83;102706.72;4955569;29;20027;-71
2022/04/17 01:28:34;;;;;;;1.65;1.15;;;;;;;15.08;30.50;102711.34;4956787;29;20085;-71
2022/04/17 01:30:59;;;;;;;2.88;1.38;;;;;;;15.12;29.96;102720.97;4956499;29;20122;-71
2022/04/17 01:33:25;;;;;;;1.30;0.93;;;;;;;15.11;30.54;102703.91;4956649;29;20075;-71
2022/04/17 01:35:50;;;;;;;3.95;1.35;;;;;;;15.13;29.94;102706.50;4955195;29;20031;-70
2022/04/17 01:38:15;;;;;;;2.38;1.20;;;;;;;15.13;30.64;102701.94;4956487;29;20513;-70
2022/04/17 01:40:41;;;;;;;2.75;1.13;;;;;;;15.16;30.41;102700.84;4939252;29;20051;-70
2022/04/17 01:43:10;;;;;;;2.08;1.00;;;;;;;15.15;30.27;102701.84;4956502;29;20105;-71
2022/04/17 01:45:36;;;;;;;1.98;0.90;;;;;;;15.11;30.24;102700.34;4956470;28;20024;-70
2022/04/17 01:48:02;;;;;;;2.15;1.10;;;;;;;15.11;29.69;102694.94;4955331;29;20099;-71
2022/04/17 01:50:27;;;;;;;2.72;1.27;;;;;;;15.08;30.39;102704.13;4956417;29;20027;-70
2022/04/17 01:52:53;;;;;;;1.45;1.10;;;;;;;15.05;30.41;102696.25;4955126;29;20031;-71
2022/04/17 01:55:19;;;;;;;2.53;1.33;;;;;;;15.02;30.42;102698.31;4954818;29;20027;-71
2022/04/17 01:57:44;;;;;;;2.83;1.33;;;;;;;15.00;30.46;102706.53;4955025;29;20099;-70
2022/04/17 02:00:10;;;;;;;1.48;0.95;;;;;;;14.97;31.03;102704.06;4954816;29;20031;-71
2022/04/17 02:02:36;;;;;;;1.55;1.40;;;;;;;14.94;29.95;102696.19;4954803;29;20027;-70
2022/04/17 02:05:01;;;;;;;0.68;0.65;;;;;;;14.91;30.93;102695.53;4955988;29;20035;-70
2022/04/17 02:07:26;;;;;;;1.60;1.13;;;;;;;14.87;30.89;102694.03;4954644;29;20023;-71
2022/04/17 02:09:52;;;;;;;4.22;1.20;;;;;;;14.86;30.51;102689.59;4955782;29;20061;-70
2022/04/17 02:12:17;;;;;;;1.13;0.88;;;;;;;14.84;30.52;102691.56;4955955;29;20085;-70
2022/04/17 02:14:42;;;;;;;1.80;1.00;;;;;;;14.82;29.83;102696.22;4938800;29;20050;-70
2022/04/17 02:17:08;;;;;;;1.35;1.25;;;;;;;14.78;29.72;102690.16;4955761;28;20106;-70
2022/04/17 02:19:33;;;;;;;1.38;1.27;;;;;;;14.76;31.17;102691.25;4955038;29;20047;-70
2022/04/17 02:21:58;;;;;;;1.30;1.20;;;;;;;14.73;30.56;102686.09;4954767;29;20388;-70
2022/04/17 02:24:24;;;;;;;3.45;1.48;;;;;;;14.70;30.92;102686.31;4955004;29;20062;-70
2022/04/17 02:26:49;;;;;;;3.65;1.30;;;;;;;14.69;29.89;102684.56;4955701;29;20031;-71
2022/04/17 02:29:14;;;;;;;1.77;1.08;;;;;;;14.67;30.17;102681.13;4954551;29;20067;-70
2022/04/17 02:31:40;;;;;;;2.88;1.58;;;;;;;14.65;29.97;102677.69;4955466;29;20392;-71
2022/04/17 02:34:07;;;;;;;2.08;1.45;;;;;;;14.62;31.28;102677.91;4955459;29;20068;-71
2022/04/17 02:36:33;;;;;;;2.15;1.33;;;;;;;14.58;30.69;102680.81;4954168;29;20031;-69
2022/04/17 02:38:58;;;;;;;3.20;1.30;;;;;;;14.53;30.21;102672.19;4955525;29;20138;-71
2022/04/17 02:41:24;;;;;;;1.65;1.23;;;;;;;14.47;30.84;102680.72;4955192;29;20392;-70
2022/04/17 02:43:49;;;;;;;1.20;1.00;;;;;;;14.39;31.01;102677.69;4938196;29;20111;-71
2022/04/17 02:47:42;;;;;;;2.28;1.40;;;;;;;14.29;30.90;102681.13;4954001;29;20528;-71
2022/04/17 02:49:00;;;;;;;3.45;1.42;;;;;;;14.21;30.91;102678.94;4954094;29;20393;-71
2022/04/17 02:51:25;;;;;;;2.53;1.30;;;;;;;14.11;30.75;102683.25;4953969;29;20020;-71
2022/04/17 02:53:50;;;;;;;2.83;1.38;;;;;;;14.02;31.60;102683.91;4953871;29;20039;-71
2022/04/17 02:56:16;;;;;;;1.90;1.40;;;;;;;13.93;31.18;102679.16;4955392;29;20031;-71
2022/04/17 02:58:41;;;;;;;1.55;1.42;;;;;;;13.86;31.65;102672.47;4937744;29;20045;-70
2022/04/17 03:06:35;;;;;;;4.90;1.50;;;;;;;13.60;31.48;102660.75;4953893;29;20483;-70
2022/04/17 03:09:00;;;;;;;1.92;1.58;;;;;;;13.56;31.91;102661.06;4954923;29;20114;-71
2022/04/17 03:11:25;;;;;;;2.05;1.42;;;;;;;13.53;32.25;102666.66;4954899;29;20035;-70
2022/04/17 03:13:52;;;;;;;3.33;1.42;;;;;;;13.50;32.31;102665.03;4953708;29;20086;-71
2022/04/17 03:16:17;;;;;;;2.25;1.75;;;;;;;13.50;32.74;102664.19;4955171;29;20469;-70
2022/04/17 03:18:43;;;;;;;3.75;1.63;;;;;;;13.49;32.58;102665.13;4954477;29;20030;-71
2022/04/17 03:21:08;;;;;;;2.88;1.98;;;;;;;13.50;31.84;102669.56;4953509;29;20027;-70
2022/04/17 03:23:33;;;;;;;3.08;1.48;;;;;;;13.50;32.10;102658.78;4953877;29;20035;-71
2022/04/17 03:25:59;;;;;;;3.33;1.85;;;;;;;13.50;32.84;102654.28;4954739;29;20027;-70
2022/04/17 03:28:24;;;;;;;2.60;1.65;;;;;;;13.51;32.20;102655.16;4953449;29;20031;-71
2022/04/17 03:30:50;;;;;;;2.90;1.65;;;;;;;13.48;32.81;102653.53;4954660;28;20038;-70
2022/04/17 03:33:15;;;;;;;2.30;1.52;;;;;;;13.49;32.56;102659.75;4953242;29;20027;-70
2022/04/17 03:35:41;;;;;;;2.13;1.75;;;;;;;13.43;32.09;102651.13;4954694;29;20051;-71
2022/04/17 03:38:07;;;;;;;2.08;1.52;;;;;;;13.35;32.84;102645.38;4937422;29;20122;-70
2022/04/17 03:40:32;;;;;;;4.68;1.73;;;;;;;13.29;32.74;102644.94;4953485;29;20082;-70
2022/04/17 03:42:58;;;;;;;2.28;1.58;;;;;;;13.20;33.06;102649.13;4954380;29;20023;-70
2022/04/17 03:45:24;;;;;;;2.78;1.92;;;;;;;13.18;32.90;102658.22;4954392;29;20053;-71
2022/04/17 03:47:50;;;;;;;4.18;2.05;;;;;;;13.12;32.62;102643.34;4953234;29;20031;-70
2022/04/17 03:50:15;;;;;;;2.17;1.55;;;;;;;13.16;32.78;102650.28;4954381;29;20073;-71
2022/04/17 03:52:44;;;;;;;2.55;2.10;;;;;;;13.18;32.35;102651.03;4954420;29;20027;-71
2022/04/17 03:55:11;;;;;;;7.13;1.92;;;;;;;13.18;31.85;102642.97;4954134;29;20027;-70
2022/04/17 03:57:36;;;;;;;5.35;1.95;;;;;;;13.22;32.44;102655.25;4953156;29;20035;-70
2022/04/17 04:00:04;;;;;;;6.05;1.65;;;;;;;13.23;33.08;102635.44;4954410;29;20031;-71
2022/04/17 04:02:30;;;;;;;3.67;2.22;;;;;;;13.24;33.03;102637.16;4954379;29;20477;-70
2022/04/17 04:04:55;;;;;;;4.22;2.10;;;;;;;13.27;33.17;102636.09;4954393;29;20455;-70
2022/04/17 04:07:21;;;;;;;3.85;2.08;;;;;;;13.27;32.79;102631.59;4954569;29;20050;-70
2022/04/17 04:09:46;;;;;;;6.03;2.15;;;;;;;13.27;32.93;102631.59;4952983;29;20147;-71
2022/04/17 04:12:11;;;;;;;2.17;1.92;;;;;;;13.26;32.97;102629.84;4954498;29;20031;-70
2022/04/17 04:14:37;;;;;;;5.20;2.08;;;;;;;13.24;32.96;102626.41;4952909;29;20035;-71
2022/04/17 04:17:03;;;;;;;4.15;2.30;;;;;;;13.28;33.01;102637.84;4952992;29;20031;-71
2022/04/17 04:19:28;;;;;;;3.33;1.77;;;;;;;13.28;32.91;102637.84;4954132;29;20035;-71
2022/04/17 04:21:54;;;;;;;2.47;1.67;;;;;;;13.28;32.66;102633.31;4953981;29;20042;-70
2022/04/17 04:24:19;;;;;;;2.65;1.65;;;;;;;13.27;32.61;102628.91;4936984;29;20475;-71
2022/04/17 04:28:32;;;;;;;3.95;1.98;;;;;;;13.26;33.21;102618.25;4953205;29;20400;-69
2022/04/17 04:29:30;;;;;;;2.03;1.55;;;;;;;13.22;33.19;102622.97;4954226;29;20058;-69
2022/04/17 04:31:56;;;;;;;4.15;1.63;;;;;;;13.13;32.83;102626.25;4952904;29;20027;-70
2022/04/17 04:34:23;;;;;;;3.33;1.90;;;;;;;13.08;32.83;102616.75;4936989;29;20038;-71
2022/04/17 04:36:48;;;;;;;3.03;2.28;;;;;;;13.00;32.97;102625.31;4952693;29;20071;-70
2022/04/17 04:39:14;;;;;;;2.30;1.83;;;;;;;12.94;33.10;102628.41;4953933;29;20055;-71
2022/04/17 04:41:39;;;;;;;2.90;2.08;;;;;;;12.91;32.84;102633.97;4954143;28;20093;-71
2022/04/17 04:44:05;;;;;;;4.40;2.30;;;;;;;12.90;32.83;102632.25;4957380;29;20097;-71
2022/04/17 04:46:30;;;;;;;2.53;1.83;;;;;;;12.91;33.78;102631.28;4956310;29;20039;-71
2022/04/17 04:51:39;;;;;;;3.72;2.58;;;;;;;12.95;33.62;102635.53;4957411;29;20566;-71
2022/04/17 04:54:07;;;;;;;6.15;1.85;;;;;;;12.96;32.95;102633.66;4957408;29;20071;-71
2022/04/17 04:56:32;;;;;;;5.72;2.13;;;;;;;12.97;34.16;102638.97;4957340;29;20038;-69
2022/04/17 04:58:58;;;;;;;3.95;1.95;;;;;;;12.96;33.48;102636.34;4956208;29;20035;-70
2022/04/17 05:01:23;;;;;;;3.83;1.98;;;;;;;12.92;33.63;102641.09;4957215;29;20031;-70
2022/04/17 05:03:48;;;;;;;2.92;2.13;;;;;;;12.89;33.45;102646.69;4957236;29;20111;-71
2022/04/17 05:06:14;;;;;;;2.38;1.88;;;;;;;12.85;33.94;102648.69;4957114;29;20081;-70
2022/04/17 05:08:39;;;;;;;6.88;2.17;;;;;;;12.89;33.63;102640.44;4955978;29;20504;-71
2022/04/17 05:11:05;;;;;;;4.15;2.47;;;;;;;12.93;33.58;102632.03;4955759;29;20110;-71
2022/04/17 05:13:30;;;;;;;7.40;2.55;;;;;;;12.99;33.45;102631.66;4957042;29;20044;-70
2022/04/17 05:15:56;;;;;;;3.15;2.22;;;;;;;13.06;33.57;102624.06;4957021;29;20111;-71
2022/04/17 05:18:22;;;;;;;2.55;1.83;;;;;;;13.14;33.15;102625.31;4955739;29;20027;-70
2022/04/17 05:20:47;;;;;;;2.40;1.88;;;;;;;13.27;33.57;102626.22;4958181;29;20035;-71
2022/04/17 05:23:17;;;;;;;3.67;2.58;;;;;;;13.39;33.65;102624.53;4956778;29;20401;-70
2022/04/17 05:25:44;;;;;;;5.25;2.25;;;;;;;13.55;33.74;102627.03;4955757;29;20476;-70
2022/04/17 05:28:09;;;;;;;5.88;1.90;;;;;;;13.69;32.92;102629.66;4956897;29;20027;-71
2022/04/17 05:30:34;;;;;;;2.30;1.88;;;;;;;13.83;33.46;102618.78;4955301;29;20038;-70
2022/04/17 05:33:00;;;;;;;2.95;2.20;;;;;;;13.99;33.15;102624.81;4956718;29;20066;-71
2022/04/17 05:35:25;;;;;;;3.53;2.38;;;;;;;14.12;32.67;102623.03;4956523;29;20469;-70
2022/04/17 05:37:50;;;;;;;6.45;2.05;;;;;;;14.27;33.29;102624.59;4955634;29;20035;-71
2022/04/17 05:40:16;;;;;;;3.22;2.38;;;;;;;14.44;33.18;102624.31;4955142;29;20070;-70
2022/04/17 05:42:42;;;;;;;6.20;2.25;;;;;;;14.58;33.41;102618.78;4956597;29;20038;-71
2022/04/17 05:45:07;;;;;;;6.70;2.00;;;;;;;14.74;33.71;102612.28;4956842;29;20047;-71
2022/04/17 05:47:33;;;;;;;3.88;2.38;;;;;;;14.91;32.78;102625.38;4955297;29;20034;-71
2022/04/17 05:49:59;;;;;;;3.22;2.28;;;;;;;15.05;32.76;102619.81;4955251;29;20023;-71
2022/04/17 05:52:25;;;;;;;2.13;1.92;;;;;;;15.21;33.35;102617.72;4954260;28;20034;-71
2022/04/17 05:54:50;;;;;;;3.30;1.77;;;;;;;15.38;33.25;102611.88;4955055;29;20035;-70
2022/04/17 05:57:16;;;;;;;2.75;2.03;;;;;;;15.59;33.18;102622.94;4955219;29;20023;-71
2022/04/17 05:59:41;;;;;;;6.13;2.53;;;;;;;15.78;32.63;102623.22;4955107;29;20054;-70
2022/04/17 06:02:11;;;;;;;2.60;2.05;;;;;;;15.98;32.28;102617.13;4956268;29;20031;-70
2022/04/17 06:04:37;;;;;;;3.53;2.10;;;;;;;16.21;33.15;102618.91;4956645;29;20023;-70
2022/04/17 06:07:02;;;;;;;5.93;2.42;;;;;;;16.41;33.10;102621.84;4955008;29;20033;-70
2022/04/17 06:09:27;;;;;;;2.65;1.65;;;;;;;16.61;32.90;102623.84;4956382;29;20118;-71
2022/04/17 06:11:53;;;;;;;4.97;2.05;;;;;;;16.75;31.71;102618.19;4956366;29;20023;-71
2022/04/17 06:14:18;;;;;;;3.75;2.55;;;;;;;16.89;32.51;102616.03;4956506;29;20023;-70
2022/04/17 06:16:43;;;;;;;2.92;1.98;;;;;;;17.04;32.76;102615.75;4956153;29;20042;-70
2022/04/17 06:19:09;;;;;;;3.97;2.20;;;;;;;17.21;31.07;102615.22;4956221;29;20043;-70
2022/04/17 06:21:38;;;;;;;3.05;1.65;;;;;;;17.35;31.73;102609.50;4954835;29;20031;-70
2022/04/17 06:24:04;;;;;;;3.28;2.65;;;;;;;17.50;31.85;102608.22;4955922;29;20031;-71
2022/04/17 06:26:29;;;;;;;3.25;1.90;;;;;;;17.62;31.09;102601.75;4954844;29;20680;-70
2022/04/17 06:28:54;;;;;;;5.80;2.25;;;;;;;17.76;32.00;102604.16;4955565;29;20035;-71
2022/04/17 06:31:20;;;;;;;2.75;1.90;;;;;;;17.90;31.67;102606.53;4955341;29;20031;-71
2022/04/17 06:33:45;;;;;;;2.67;1.77;;;;;;;18.02;31.88;102594.63;4954592;29;20035;-71
2022/04/17 06:36:10;;;;;;;3.15;1.88;;;;;;;18.16;30.77;102595.25;4955894;29;20039;-70
2022/04/17 06:38:36;;;;;;;2.67;1.88;;;;;;;18.31;31.22;102597.47;4954585;29;20035;-70
2022/04/17 06:41:01;;;;;;;3.60;2.55;;;;;;;18.47;31.61;102595.13;4955770;29;20030;-71
2022/04/17 06:43:26;;;;;;;2.13;1.92;;;;;;;18.65;31.11;102597.22;4955748;29;20022;-71
2022/04/17 06:45:52;;;;;;;4.20;1.60;;;;;;;18.83;30.59;102588.25;4954961;29;20015;-70
2022/04/17 06:48:22;;;;;;;2.28;1.83;;;;;;;18.98;30.63;102589.53;4956108;29;20066;-70
2022/04/17 06:50:48;;;;;;;4.00;2.10;;;;;;;19.17;30.62;102584.16;4954401;29;20062;-70
2022/04/17 06:53:14;;;;;;;2.10;1.80;;;;;;;19.32;31.33;102581.03;4955631;29;20035;-71
2022/04/17 06:55:39;;;;;;;2.55;2.05;;;;;;;19.49;30.76;102588.47;4955642;29;20563;-70
2022/04/17 06:58:07;;;;;;;3.38;2.20;;;;;;;19.66;30.14;102585.88;4955536;29;20027;-70
2022/04/17 07:00:32;;;;;;;2.47;1.70;;;;;;;19.83;30.47;102584.28;4963028;28;20023;-72
2022/04/17 07:02:58;;;;;;;1.67;1.38;;;;;;;19.98;30.67;102590.97;4964061;28;20023;-70
2022/04/17 07:05:23;;;;;;;4.80;1.90;;;;;;;20.10;30.41;102584.34;4947287;28;20019;-71
2022/04/17 07:07:57;;;;;;;1.83;1.50;;;;;;;20.24;30.32;102581.16;4963748;28;20043;-71
2022/04/17 07:10:22;;;;;;;8.63;2.60;;;;;;;20.40;30.31;102579.69;4963133;28;20022;-70
2022/04/17 07:12:48;;;;;;;6.53;2.00;;;;;;;20.51;29.65;102576.75;4964370;28;20489;-71
2022/04/17 07:15:13;;;;;;;2.53;2.10;;;;;;;20.61;29.58;102578.41;4963429;28;20438;-70
2022/04/17 07:17:40;;;;;;;4.90;2.15;;;;;;;20.74;29.74;102567.19;4965270;28;20097;-70
2022/04/17 07:20:08;;;;;;;3.90;1.88;;;;;;;20.87;29.70;102567.66;4964658;28;20074;-70
2022/04/17 07:22:34;;;;;;;2.45;2.05;;;;;;;21.02;29.71;102555.19;4962045;28;20369;-70
2022/04/17 07:25:01;;;;;;;2.40;1.88;;;;;;;21.21;29.46;102549.66;4948355;28;20047;-70
2022/04/17 07:27:36;;;;;;;2.30;1.63;;;;;;;21.41;29.22;102551.16;4965383;28;20027;-71
2022/04/17 07:30:10;;;;;;;3.33;1.95;;;;;;;21.60;29.43;102554.75;4964313;28;20054;-71
2022/04/17 07:32:36;;;;;;;2.05;1.60;;;;;;;21.79;28.85;102558.13;4963751;28;20055;-70
2022/04/17 07:35:01;;;;;;;3.03;1.85;;;;;;;21.97;28.70;102549.94;4963418;28;20035;-71
2022/04/17 07:37:27;;;;;;;5.13;1.75;;;;;;;22.17;28.17;102554.13;4963988;28;20023;-70
2022/04/17 07:39:52;;;;;;;3.03;1.35;;;;;;;22.31;28.88;102553.50;4963850;28;20408;-70
2022/04/17 07:42:19;;;;;;;2.20;1.77;;;;;;;22.47;27.79;102555.47;4969076;28;20030;-70
2022/04/17 07:44:45;;;;;;;4.60;1.58;;;;;;;22.65;27.65;102555.38;4974443;28;20075;-71
2022/04/17 07:47:10;;;;;;;4.38;1.92;;;;;;;22.81;28.62;102558.19;4973139;28;20565;-70
2022/04/17 07:49:35;;;;;;;3.70;1.30;;;;;;;23.00;27.46;102549.66;4974173;28;20089;-71
2022/04/17 07:52:01;;;;;;;2.45;1.80;;;;;;;23.22;27.73;102549.00;4973967;28;20522;-69
2022/04/17 07:54:26;;;;;;;3.10;1.65;;;;;;;23.42;27.94;102553.13;4973866;28;20023;-69
2022/04/17 07:56:52;;;;;;;3.00;1.58;;;;;;;23.58;27.80;102550.41;4972956;28;20038;-69
2022/04/17 07:59:17;;;;;;;2.40;1.40;;;;;;;23.76;26.97;102537.38;4974367;28;20054;-70
2022/04/17 08:01:45;;;;;;;2.80;1.52;;;;;;;23.97;26.88;102542.31;4974040;28;20070;-70
2022/04/17 08:04:10;;;;;;;1.98;1.50;;;;;;;24.10;26.56;102541.78;4973287;28;20034;-70
2022/04/17 08:06:36;;;;;;;2.08;1.52;;;;;;;24.24;26.56;102538.31;4985368;28;20049;-70
2022/04/17 08:09:02;;;;;;;2.75;1.65;;;;;;;24.39;27.24;102535.69;4992141;28;20390;-71
2022/04/17 08:11:28;;;;;;;2.70;1.40;;;;;;;24.46;27.12;102534.78;4992539;28;20504;-70
2022/04/17 08:13:54;;;;;;;2.25;1.30;;;;;;;24.48;26.33;102532.75;4993816;28;20028;-70
2022/04/17 08:16:19;;;;;;;1.75;1.25;;;;;;;24.53;26.64;102526.72;4995522;28;20033;-70
2022/04/17 08:18:45;;;;;;;1.35;1.25;;;;;;;24.60;26.77;102523.06;4996531;28;20150;-70
2022/04/17 08:21:11;;;;;;;2.38;1.25;;;;;;;24.74;26.30;102521.44;4997500;28;20061;-69
2022/04/17 08:23:37;;;;;;;1.50;1.35;;;;;;;24.85;25.98;102516.44;4997467;28;20473;-70
2022/04/17 08:26:04;;;;;;;3.15;1.58;;;;;;;24.98;25.85;102515.00;4997430;28;20069;-70
2022/04/17 08:28:30;;;;;;;2.33;1.20;;;;;;;24.56;25.89;102428.56;5010740;22;20030;-87
2022/04/17 08:30:57;;;;;;;2.22;1.70;;;;;;;25.16;25.94;102512.78;4990805;28;20035;-87
2022/04/17 08:33:28;;;;;;;3.60;1.58;;;;;;;25.05;25.29;102483.03;4973712;28;20121;-87
2022/04/17 08:35:55;;;;;;;1.27;1.17;;;;;;;25.15;25.94;102490.00;4993542;28;20030;-87
2022/04/17 08:38:21;;;;;;;2.50;1.55;;;;;;;25.25;25.73;102487.00;4992499;28;20113;-87
2022/04/17 08:40:56;;;;;;;2.03;1.60;;;;;;;25.21;25.37;102467.31;4992705;28;20045;-87
2022/04/17 08:43:22;;;;;;;3.53;1.50;;;;;;;25.55;25.43;102497.03;4990701;28;20022;-87
2022/04/17 08:45:58;;;;;;;4.90;2.67;;;;;;;25.74;25.05;102504.72;4991325;28;20058;-87
2022/04/17 08:48:26;;;;;;;2.40;1.50;;;;;;;25.57;24.91;102451.06;4991704;28;20022;-87
2022/04/17 08:50:58;;;;;;;1.45;1.20;;;;;;;25.90;25.08;102490.84;4991337;28;20030;-87
2022/04/17 08:53:30;;;;;;;1.77;1.30;;;;;;;25.49;25.37;102401.72;4991572;28;20025;-86
2022/04/17 08:56:01;;;;;;;2.47;1.50;;;;;;;25.69;25.01;102424.81;5007605;28;20027;-86
2022/04/17 08:58:27;;;;;;;2.97;1.58;;;;;;;26.17;24.98;102488.47;4989794;28;20090;-87
2022/04/17 09:00:52;;;;;;;4.40;1.42;;;;;;;25.83;24.94;102418.47;5005501;28;20022;-87
2022/04/17 09:03:18;;;;;;;2.42;1.13;;;;;;;26.22;24.95;102461.25;4990061;28;20089;-87
2022/04/17 09:05:43;;;;;;;2.15;1.30;;;;;;;26.18;24.38;102444.34;4988640;28;20101;-87
2022/04/17 09:08:17;;;;;;;3.55;1.55;;;;;;;26.34;24.43;102459.75;4985363;28;20029;-88
2022/04/17 09:10:56;;;;;;;2.88;1.73;;;;;;;26.64;24.73;102480.59;4983172;28;20100;-88
2022/04/17 09:13:29;;;;;;;2.40;1.70;;;;;;;26.60;24.40;102455.38;4982469;28;20114;-87
2022/04/17 09:15:55;;;;;;;1.15;1.05;;;;;;;26.89;24.72;102481.09;4998508;28;20026;-88
2022/04/17 09:18:20;;;;;;;1.52;1.42;;;;;;;26.85;24.04;102444.91;4982097;28;20033;-87
2022/04/17 09:20:46;;;;;;;2.35;1.63;;;;;;;27.04;24.28;102455.25;4983169;28;20115;-87
2022/04/17 09:23:12;;;;;;;1.98;1.52;;;;;;;26.75;24.31;102400.34;4984142;28;20094;-87
2022/04/17 09:25:37;;;;;;;2.25;1.48;;;;;;;27.04;24.42;102432.38;4984080;28;20094;-87
2022/04/17 09:28:09;;;;;;;1.30;1.10;;;;;;;27.34;23.89;102461.41;4999180;28;20030;-87
2022/04/17 09:30:39;;;;;;;1.23;1.13;;;;;;;27.51;24.17;102464.75;4982719;28;20129;-87
2022/04/17 09:33:09;;;;;;;2.58;1.20;;;;;;;27.59;24.14;102461.84;4998649;28;20397;-88
2022/04/17 09:35:35;;;;;;;3.10;1.30;;;;;;;27.55;23.38;102444.03;4983108;28;20338;-87
2022/04/17 09:38:03;;;;;;;2.63;1.88;;;;;;;27.58;23.87;102452.72;4982843;28;20050;-87
2022/04/17 09:40:31;;;;;;;1.20;1.10;;;;;;;27.61;24.08;102440.50;4982141;28;20045;-87
2022/04/17 09:43:16;;;;;;;1.77;1.38;;;;;;;27.77;23.30;102437.41;4982040;28;20038;-87
2022/04/17 09:46:04;;;;;;;3.28;1.50;;;;;;;27.84;24.01;102420.88;4982596;28;20022;-87
2022/04/17 09:48:35;;;;;;;1.70;1.35;;;;;;;28.29;22.83;102432.16;4998165;28;20064;-87
2022/04/17 09:51:22;;;;;;;2.72;2.53;;;;;;;28.94;23.78;102427.88;4981142;28;20033;-87
2022/04/17 09:53:58;;;;;;;3.45;2.30;;;;;;;30.03;22.12;102429.03;4996276;28;20484;-85
2022/04/17 09:56:39;;;;;;;1.70;1.20;;;;;;;31.57;21.47;102414.59;4980169;28;20031;-85
2022/04/17 09:59:18;;;;;;;1.67;1.27;;;;;;;33.31;19.30;102403.38;4980054;28;20026;-85
2022/04/17 10:01:49;;;;;;;1.83;1.33;;;;;;;32.57;19.93;102379.84;4980140;28;20076;-85
2022/04/17 10:04:19;;;;;;;2.67;1.60;;;;;;;31.85;21.05;102379.94;4998207;28;20022;-86
2022/04/17 10:06:55;;;;;;;2.75;1.30;;;;;;;31.43;21.26;102379.75;4981862;28;20121;-86
2022/04/17 10:09:21;;;;;;;1.23;0.90;;;;;;;31.52;21.45;102408.88;4981569;28;20054;-86
2022/04/17 10:11:49;;;;;;;3.70;1.40;;;;;;;31.55;21.28;102411.19;4981500;28;20034;-86
2022/04/17 10:14:17;;;;;;;3.47;1.52;;;;;;;31.60;20.94;102405.78;4983128;28;20026;-86
2022/04/17 10:16:45;;;;;;;1.40;1.00;;;;;;;31.68;20.20;102383.34;4981491;28;20054;-86
2022/04/17 10:19:13;;;;;;;3.38;1.30;;;;;;;31.93;20.29;102396.25;4981495;28;20035;-86
2022/04/17 10:21:42;;;;;;;2.92;1.30;;;;;;;31.92;20.29;102377.91;4980531;28;20022;-87
2022/04/17 10:24:14;;;;;;;2.15;1.40;;;;;;;31.80;21.10;102329.91;4979413;28;20436;-86
2022/04/17 10:26:53;;;;;;;2.15;1.45;;;;;;;32.42;20.41;102396.03;4978759;28;20033;-86
2022/04/17 10:29:45;;;;;;;4.30;1.30;;;;;;;32.67;20.04;102376.47;4978840;28;20057;-86
2022/04/17 10:32:32;;;;;;;1.30;1.20;;;;;;;32.93;19.94;102376.03;4965112;28;20881;-86
2022/04/17 10:35:17;;;;;;;1.33;1.23;;;;;;;33.07;20.27;102377.53;4994749;28;20026;-86
2022/04/17 10:38:05;;;;;;;1.58;1.15;;;;;;;33.29;19.70;102363.88;4994545;28;20022;-86
2022/04/17 10:40:31;;;;;;;1.88;1.40;;;;;;;33.21;19.25;102333.69;4994224;28;20031;-86
2022/04/17 10:42:59;;;;;;;1.38;1.17;;;;;;;33.40;19.53;102343.56;4978425;28;20034;-86
2022/04/17 10:45:25;;;;;;;1.50;1.30;;;;;;;33.45;19.76;102321.44;4994330;28;20022;-86
2022/04/17 10:48:10;;;;;;;3.10;1.20;;;;;;;33.39;19.10;102287.13;4978515;28;20026;-86
2022/04/17 10:50:48;;;;;;;4.72;1.50;;;;;;;33.90;19.03;102354.97;4979628;28;20384;-87
2022/04/17 10:53:29;;;;;;;1.70;0.80;;;;;;;33.88;19.14;102334.91;4994354;28;20399;-86
2022/04/17 10:56:09;;;;;;;1.55;1.23;;;;;;;33.74;18.74;102303.75;4977954;28;20030;-86
2022/04/17 10:58:49;;;;;;;4.78;1.50;;;;;;;33.91;18.74;102323.28;4978318;28;20023;-85
2022/04/17 11:01:15;;;;;;;1.50;1.00;;;;;;;34.05;18.41;102307.13;4964158;28;20030;-85
2022/04/17 11:03:50;;;;;;;1.20;1.10;;;;;;;34.15;19.07;102316.53;4978936;28;20089;-85
2022/04/17 11:06:32;;;;;;;3.65;1.20;;;;;;;34.05;19.20;102287.66;4978402;28;20026;-85
2022/04/17 11:09:15;;;;;;;1.70;1.33;;;;;;;33.95;19.31;102278.03;4983763;28;20022;-85
2022/04/17 11:11:45;;;;;;;2.75;1.40;;;;;;;34.05;18.34;102282.09;4982143;28;20026;-85
2022/04/17 11:14:22;;;;;;;2.53;0.85;;;;;;;33.81;18.55;102245.22;4979853;28;20030;-85
2022/04/17 11:16:53;;;;;;;2.45;0.80;;;;;;;34.25;18.64;102313.97;4996452;28;20510;-86
2022/04/17 11:19:21;;;;;;;1.20;0.83;;;;;;;34.25;19.03;102315.91;4996071;28;20499;-86
2022/04/17 11:21:51;;;;;;;1.13;0.82;;;;;;;33.85;18.48;102240.81;4980483;28;20029;-86
2022/04/17 11:24:17;;;;;;;1.27;1.15;;;;;;;34.33;17.80;102309.91;4979602;28;20022;-86
2022/04/17 11:26:58;;;;;;;2.45;1.08;;;;;;;34.35;18.31;102294.66;4980513;28;20384;-86
2022/04/17 11:29:40;;;;;;;1.08;0.90;;;;;;;34.14;17.60;102255.59;4995750;28;20149;-85
2022/04/17 11:32:18;;;;;;;1.30;0.70;;;;;;;34.46;17.22;102278.97;4979491;28;20019;-86
2022/04/17 11:34:54;;;;;;;1.00;0.80;;;;;;;34.22;17.41;102230.97;4995345;28;20080;-86
2022/04/17 11:37:26;;;;;;;2.20;0.95;;;;;;;34.26;17.79;102231.28;4980371;28;20044;-85
2022/04/17 11:39:53;;;;;;;2.50;0.80;;;;;;;34.50;17.59;102277.38;4978503;28;20026;-85